sensor_id;sensor_type;location;lat;lon;timestamp;temperature;humidity
18240;DHT22;9244;50.828;4.718;2023-08-08T00:00:17;13.30;99.90
18240;DHT22;9244;50.828;4.718;2023-08-08T00:02:43;13.20;99.90
18240;DHT22;9244;50.828;4.718;2023-08-08T00:05:09;13.20;99.90
18240;DHT22;9244;50.828;4.718;2023-08-08T00:07:35;13.30;99.90
18240;DHT22;9244;50.828;4.718;2023-08-08T00:10:00;13.20;99.90
18240;DHT22;9244;50.828;4.718;2023-08-08T00:12:26;13.20;99.90
18240;DHT22;9244;50.828;4.718;2023-08-08T00:14:52;13.20;99.90
18240;DHT22;9244;50.828;4.718;2023-08-08T00:17:17;13.10;99.90
18240;DHT22;9244;50.828;4.718;2023-08-08T00:19:43;13.10;99.90
18240;DHT22;9244;50.828;4.718;2023-08-08T00:22:09;13.10;99.90
18240;DHT22;9244;50.828;4.718;2023-08-08T00:24:34;13.10;99.90
18240;DHT22;9244;50.828;4.718;2023-08-08T00:27:00;13.10;99.90
18240;DHT22;9244;50.828;4.718;2023-08-08T00:29:25;13.10;99.90
18240;DHT22;9244;50.828;4.718;2023-08-08T00:31:51;13.10;99.90
18240;DHT22;9244;50.828;4.718;2023-08-08T00:34:16;13.10;99.90
18240;DHT22;9244;50.828;4.718;2023-08-08T00:36:42;13.00;99.90
18240;DHT22;9244;50.828;4.718;2023-08-08T00:39:08;13.00;99.90
18240;DHT22;9244;50.828;4.718;2023-08-08T00:41:33;13.00;99.90
18240;DHT22;9244;50.828;4.718;2023-08-08T00:44:00;13.00;99.90
18240;DHT22;9244;50.828;4.718;2023-08-08T00:46:25;13.00;99.90
18240;DHT22;9244;50.828;4.718;2023-08-08T00:48:52;13.00;99.90
18240;DHT22;9244;50.828;4.718;2023-08-08T00:51:18;13.00;99.90
18240;DHT22;9244;50.828;4.718;2023-08-08T00:53:44;13.00;99.90
18240;DHT22;9244;50.828;4.718;2023-08-08T00:56:13;13.00;99.90
18240;DHT22;9244;50.828;4.718;2023-08-08T00:58:39;13.00;99.90
18240;DHT22;9244;50.828;4.718;2023-08-08T01:01:05;12.90;99.90
18240;DHT22;9244;50.828;4.718;2023-08-08T01:03:30;12.90;99.90
18240;DHT22;9244;50.828;4.718;2023-08-08T01:06:16;13.00;99.90
18240;DHT22;9244;50.828;4.718;2023-08-08T01:09:09;12.90;99.90
18240;DHT22;9244;50.828;4.718;2023-08-08T01:11:36;12.90;99.90
18240;DHT22;9244;50.828;4.718;2023-08-08T01:14:03;12.90;99.90
18240;DHT22;9244;50.828;4.718;2023-08-08T01:16:31;12.90;99.90
18240;DHT22;9244;50.828;4.718;2023-08-08T01:18:58;12.90;99.90
18240;DHT22;9244;50.828;4.718;2023-08-08T01:21:25;12.80;99.90
18240;DHT22;9244;50.828;4.718;2023-08-08T01:23:56;12.80;99.90
18240;DHT22;9244;50.828;4.718;2023-08-08T01:26:26;12.90;99.90
18240;DHT22;9244;50.828;4.718;2023-08-08T01:28:53;12.80;99.90
18240;DHT22;9244;50.828;4.718;2023-08-08T01:31:22;12.80;99.90
18240;DHT22;9244;50.828;4.718;2023-08-08T01:33:47;12.80;99.90
18240;DHT22;9244;50.828;4.718;2023-08-08T01:36:30;12.80;99.90
18240;DHT22;9244;50.828;4.718;2023-08-08T01:38:59;12.80;99.90
18240;DHT22;9244;50.828;4.718;2023-08-08T01:41:34;12.80;99.90
18240;DHT22;9244;50.828;4.718;2023-08-08T01:44:03;12.70;99.90
18240;DHT22;9244;50.828;4.718;2023-08-08T01:46:30;12.80;99.90
18240;DHT22;9244;50.828;4.718;2023-08-08T01:48:58;12.80;99.90
18240;DHT22;9244;50.828;4.718;2023-08-08T01:51:24;12.80;99.90
18240;DHT22;9244;50.828;4.718;2023-08-08T01:53:51;12.90;99.90
18240;DHT22;9244;50.828;4.718;2023-08-08T01:56:16;12.90;99.90
18240;DHT22;9244;50.828;4.718;2023-08-08T01:58:42;12.80;99.90
18240;DHT22;9244;50.828;4.718;2023-08-08T02:01:08;12.70;99.90
18240;DHT22;9244;50.828;4.718;2023-08-08T02:03:33;12.70;99.90
18240;DHT22;9244;50.828;4.718;2023-08-08T02:05:59;12.80;99.90
18240;DHT22;9244;50.828;4.718;2023-08-08T02:08:24;12.70;99.90
18240;DHT22;9244;50.828;4.718;2023-08-08T02:10:50;12.80;99.90
18240;DHT22;9244;50.828;4.718;2023-08-08T02:13:16;12.70;99.90
18240;DHT22;9244;50.828;4.718;2023-08-08T02:15:41;12.70;99.90
18240;DHT22;9244;50.828;4.718;2023-08-08T02:18:07;12.80;99.90
18240;DHT22;9244;50.828;4.718;2023-08-08T02:20:34;12.70;99.90
18240;DHT22;9244;50.828;4.718;2023-08-08T02:23:00;12.70;99.90
18240;DHT22;9244;50.828;4.718;2023-08-08T02:25:25;12.70;99.90
18240;DHT22;9244;50.828;4.718;2023-08-08T02:27:51;12.70;99.90
18240;DHT22;9244;50.828;4.718;2023-08-08T02:30:17;12.70;99.90
18240;DHT22;9244;50.828;4.718;2023-08-08T02:32:42;12.70;99.90
18240;DHT22;9244;50.828;4.718;2023-08-08T02:35:08;12.80;99.90
18240;DHT22;9244;50.828;4.718;2023-08-08T02:37:34;12.70;99.90
18240;DHT22;9244;50.828;4.718;2023-08-08T02:39:59;12.80;99.90
18240;DHT22;9244;50.828;4.718;2023-08-08T02:42:25;12.80;99.90
18240;DHT22;9244;50.828;4.718;2023-08-08T02:44:50;12.70;99.90
18240;DHT22;9244;50.828;4.718;2023-08-08T02:47:16;12.70;99.90
18240;DHT22;9244;50.828;4.718;2023-08-08T02:49:42;12.70;99.90
18240;DHT22;9244;50.828;4.718;2023-08-08T02:52:07;12.80;99.90
18240;DHT22;9244;50.828;4.718;2023-08-08T02:54:33;12.80;99.90
18240;DHT22;9244;50.828;4.718;2023-08-08T02:56:59;12.70;99.90
18240;DHT22;9244;50.828;4.718;2023-08-08T02:59:24;12.70;99.90
18240;DHT22;9244;50.828;4.718;2023-08-08T03:01:50;12.70;99.90
18240;DHT22;9244;50.828;4.718;2023-08-08T03:04:16;12.70;99.90
18240;DHT22;9244;50.828;4.718;2023-08-08T03:06:41;12.70;99.90
18240;DHT22;9244;50.828;4.718;2023-08-08T03:09:07;12.70;99.90
18240;DHT22;9244;50.828;4.718;2023-08-08T03:11:33;12.70;99.90
18240;DHT22;9244;50.828;4.718;2023-08-08T03:13:58;12.60;99.90
18240;DHT22;9244;50.828;4.718;2023-08-08T03:16:24;12.60;99.90
18240;DHT22;9244;50.828;4.718;2023-08-08T03:18:49;12.60;99.90
18240;DHT22;9244;50.828;4.718;2023-08-08T03:21:15;12.60;99.90
18240;DHT22;9244;50.828;4.718;2023-08-08T03:23:41;12.50;99.90
18240;DHT22;9244;50.828;4.718;2023-08-08T03:26:06;12.50;99.90
18240;DHT22;9244;50.828;4.718;2023-08-08T03:28:32;12.50;99.90
18240;DHT22;9244;50.828;4.718;2023-08-08T03:30:58;12.60;99.90
18240;DHT22;9244;50.828;4.718;2023-08-08T03:33:23;12.50;99.90
18240;DHT22;9244;50.828;4.718;2023-08-08T03:35:49;12.50;99.90
18240;DHT22;9244;50.828;4.718;2023-08-08T03:38:14;12.50;99.90
18240;DHT22;9244;50.828;4.718;2023-08-08T03:40:40;12.50;99.90
18240;DHT22;9244;50.828;4.718;2023-08-08T03:43:05;12.40;99.90
18240;DHT22;9244;50.828;4.718;2023-08-08T03:45:31;12.40;99.90
18240;DHT22;9244;50.828;4.718;2023-08-08T03:47:57;12.40;99.90
18240;DHT22;9244;50.828;4.718;2023-08-08T03:50:22;12.40;99.90
18240;DHT22;9244;50.828;4.718;2023-08-08T03:52:48;12.40;99.90
18240;DHT22;9244;50.828;4.718;2023-08-08T03:55:14;12.40;99.90
18240;DHT22;9244;50.828;4.718;2023-08-08T03:57:39;12.40;99.90
18240;DHT22;9244;50.828;4.718;2023-08-08T04:00:05;12.40;99.90
18240;DHT22;9244;50.828;4.718;2023-08-08T04:02:33;12.40;99.90
18240;DHT22;9244;50.828;4.718;2023-08-08T04:04:59;12.50;99.90
18240;DHT22;9244;50.828;4.718;2023-08-08T04:07:25;12.50;99.90
18240;DHT22;9244;50.828;4.718;2023-08-08T04:09:50;12.40;99.90
18240;DHT22;9244;50.828;4.718;2023-08-08T04:12:16;12.40;99.90
18240;DHT22;9244;50.828;4.718;2023-08-08T04:14:41;12.40;99.90
18240;DHT22;9244;50.828;4.718;2023-08-08T04:17:07;12.40;99.90
18240;DHT22;9244;50.828;4.718;2023-08-08T04:19:33;12.30;99.90
18240;DHT22;9244;50.828;4.718;2023-08-08T04:21:59;12.40;99.90
18240;DHT22;9244;50.828;4.718;2023-08-08T04:24:25;12.30;99.90
18240;DHT22;9244;50.828;4.718;2023-08-08T04:26:50;12.30;99.90
18240;DHT22;9244;50.828;4.718;2023-08-08T04:29:16;12.30;99.90
18240;DHT22;9244;50.828;4.718;2023-08-08T04:31:41;12.30;99.90
18240;DHT22;9244;50.828;4.718;2023-08-08T04:34:07;12.30;99.90
18240;DHT22;9244;50.828;4.718;2023-08-08T04:36:33;12.30;99.90
18240;DHT22;9244;50.828;4.718;2023-08-08T04:38:58;12.30;99.90
18240;DHT22;9244;50.828;4.718;2023-08-08T04:41:24;12.30;99.90
18240;DHT22;9244;50.828;4.718;2023-08-08T04:43:50;12.30;99.90
18240;DHT22;9244;50.828;4.718;2023-08-08T04:46:15;12.30;99.90
18240;DHT22;9244;50.828;4.718;2023-08-08T04:48:41;12.30;99.90
18240;DHT22;9244;50.828;4.718;2023-08-08T04:51:07;12.30;99.90
18240;DHT22;9244;50.828;4.718;2023-08-08T04:53:33;12.30;99.90
18240;DHT22;9244;50.828;4.718;2023-08-08T04:55:59;12.40;99.90
18240;DHT22;9244;50.828;4.718;2023-08-08T04:58:24;12.40;99.90
18240;DHT22;9244;50.828;4.718;2023-08-08T05:00:50;12.40;99.90
18240;DHT22;9244;50.828;4.718;2023-08-08T05:03:17;12.40;99.90
18240;DHT22;9244;50.828;4.718;2023-08-08T05:05:43;12.50;99.90
18240;DHT22;9244;50.828;4.718;2023-08-08T05:08:11;12.50;99.90
18240;DHT22;9244;50.828;4.718;2023-08-08T05:10:36;12.50;99.90
18240;DHT22;9244;50.828;4.718;2023-08-08T05:13:02;12.60;99.90
18240;DHT22;9244;50.828;4.718;2023-08-08T05:15:28;12.60;99.90
18240;DHT22;9244;50.828;4.718;2023-08-08T05:17:54;12.70;99.90
18240;DHT22;9244;50.828;4.718;2023-08-08T05:20:20;12.70;99.90
18240;DHT22;9244;50.828;4.718;2023-08-08T05:22:46;12.80;99.90
18240;DHT22;9244;50.828;4.718;2023-08-08T05:25:12;12.90;99.90
18240;DHT22;9244;50.828;4.718;2023-08-08T05:27:38;13.00;99.90
18240;DHT22;9244;50.828;4.718;2023-08-08T05:30:04;13.60;99.90
18240;DHT22;9244;50.828;4.718;2023-08-08T05:32:30;14.30;99.90
18240;DHT22;9244;50.828;4.718;2023-08-08T05:34:56;15.20;99.90
18240;DHT22;9244;50.828;4.718;2023-08-08T05:37:26;15.60;99.90
18240;DHT22;9244;50.828;4.718;2023-08-08T05:39:51;16.00;99.90
18240;DHT22;9244;50.828;4.718;2023-08-08T05:42:17;16.00;99.90
18240;DHT22;9244;50.828;4.718;2023-08-08T05:44:43;16.50;99.90
18240;DHT22;9244;50.828;4.718;2023-08-08T05:47:09;16.60;99.90
18240;DHT22;9244;50.828;4.718;2023-08-08T05:49:35;16.70;99.90
18240;DHT22;9244;50.828;4.718;2023-08-08T05:52:01;16.00;99.90
18240;DHT22;9244;50.828;4.718;2023-08-08T05:54:27;15.40;99.90
18240;DHT22;9244;50.828;4.718;2023-08-08T05:56:53;15.10;99.90
18240;DHT22;9244;50.828;4.718;2023-08-08T05:59:19;15.00;99.90
18240;DHT22;9244;50.828;4.718;2023-08-08T06:01:45;14.70;99.90
18240;DHT22;9244;50.828;4.718;2023-08-08T06:04:11;14.70;99.90
18240;DHT22;9244;50.828;4.718;2023-08-08T06:06:37;14.80;99.90
18240;DHT22;9244;50.828;4.718;2023-08-08T06:09:03;14.80;99.90
18240;DHT22;9244;50.828;4.718;2023-08-08T06:11:29;14.80;99.90
18240;DHT22;9244;50.828;4.718;2023-08-08T06:13:55;15.00;99.90
18240;DHT22;9244;50.828;4.718;2023-08-08T06:16:21;15.10;99.90
18240;DHT22;9244;50.828;4.718;2023-08-08T06:18:47;15.10;99.90
18240;DHT22;9244;50.828;4.718;2023-08-08T06:21:12;14.90;99.90
18240;DHT22;9244;50.828;4.718;2023-08-08T06:23:38;14.70;99.90
18240;DHT22;9244;50.828;4.718;2023-08-08T06:26:04;15.00;99.90
18240;DHT22;9244;50.828;4.718;2023-08-08T06:28:30;15.20;99.90
18240;DHT22;9244;50.828;4.718;2023-08-08T06:30:57;15.50;99.90
18240;DHT22;9244;50.828;4.718;2023-08-08T06:33:23;15.60;99.90
18240;DHT22;9244;50.828;4.718;2023-08-08T06:35:49;15.60;99.90
18240;DHT22;9244;50.828;4.718;2023-08-08T06:38:14;16.10;99.90
18240;DHT22;9244;50.828;4.718;2023-08-08T06:40:40;16.50;99.90
18240;DHT22;9244;50.828;4.718;2023-08-08T06:43:06;16.90;99.90
18240;DHT22;9244;50.828;4.718;2023-08-08T06:45:31;16.70;99.90
18240;DHT22;9244;50.828;4.718;2023-08-08T06:47:57;16.40;99.90
18240;DHT22;9244;50.828;4.718;2023-08-08T06:50:22;16.30;99.90
18240;DHT22;9244;50.828;4.718;2023-08-08T06:52:50;16.90;99.90
18240;DHT22;9244;50.828;4.718;2023-08-08T06:55:16;17.00;99.90
18240;DHT22;9244;50.828;4.718;2023-08-08T06:57:42;17.50;99.90
18240;DHT22;9244;50.828;4.718;2023-08-08T07:00:08;18.30;99.90
18240;DHT22;9244;50.828;4.718;2023-08-08T07:02:37;18.10;99.90
18240;DHT22;9244;50.828;4.718;2023-08-08T07:05:03;18.40;99.90
18240;DHT22;9244;50.828;4.718;2023-08-08T07:07:29;18.60;99.90
18240;DHT22;9244;50.828;4.718;2023-08-08T07:09:56;18.50;99.90
18240;DHT22;9244;50.828;4.718;2023-08-08T07:12:22;18.40;99.90
18240;DHT22;9244;50.828;4.718;2023-08-08T07:14:47;18.00;99.90
18240;DHT22;9244;50.828;4.718;2023-08-08T07:17:13;18.00;99.90
18240;DHT22;9244;50.828;4.718;2023-08-08T07:19:38;17.70;99.90
18240;DHT22;9244;50.828;4.718;2023-08-08T07:22:04;18.00;99.90
18240;DHT22;9244;50.828;4.718;2023-08-08T07:24:30;18.20;99.90
18240;DHT22;9244;50.828;4.718;2023-08-08T07:26:57;18.30;99.90
18240;DHT22;9244;50.828;4.718;2023-08-08T07:29:23;18.00;99.90
18240;DHT22;9244;50.828;4.718;2023-08-08T07:31:49;17.70;99.90
18240;DHT22;9244;50.828;4.718;2023-08-08T07:34:14;17.50;99.90
18240;DHT22;9244;50.828;4.718;2023-08-08T07:36:40;17.20;99.90
18240;DHT22;9244;50.828;4.718;2023-08-08T07:39:05;17.20;99.90
18240;DHT22;9244;50.828;4.718;2023-08-08T07:41:31;17.20;99.90
18240;DHT22;9244;50.828;4.718;2023-08-08T07:43:57;17.40;99.90
18240;DHT22;9244;50.828;4.718;2023-08-08T07:46:23;17.10;99.90
18240;DHT22;9244;50.828;4.718;2023-08-08T07:48:48;17.10;99.90
18240;DHT22;9244;50.828;4.718;2023-08-08T07:51:14;16.90;99.90
18240;DHT22;9244;50.828;4.718;2023-08-08T07:53:39;16.70;99.90
18240;DHT22;9244;50.828;4.718;2023-08-08T07:56:05;16.70;99.90
18240;DHT22;9244;50.828;4.718;2023-08-08T07:58:32;16.90;99.90
18240;DHT22;9244;50.828;4.718;2023-08-08T08:00:58;16.80;99.90
18240;DHT22;9244;50.828;4.718;2023-08-08T08:03:25;17.00;99.90
18240;DHT22;9244;50.828;4.718;2023-08-08T08:05:51;17.10;99.90
18240;DHT22;9244;50.828;4.718;2023-08-08T08:08:16;17.10;99.90
18240;DHT22;9244;50.828;4.718;2023-08-08T08:10:42;17.30;99.90
18240;DHT22;9244;50.828;4.718;2023-08-08T08:13:08;17.30;99.90
18240;DHT22;9244;50.828;4.718;2023-08-08T08:15:33;17.40;99.90
18240;DHT22;9244;50.828;4.718;2023-08-08T08:17:59;17.50;99.90
18240;DHT22;9244;50.828;4.718;2023-08-08T08:20:25;17.60;99.90
18240;DHT22;9244;50.828;4.718;2023-08-08T08:22:50;17.70;99.90
18240;DHT22;9244;50.828;4.718;2023-08-08T08:25:16;17.90;99.90
18240;DHT22;9244;50.828;4.718;2023-08-08T08:27:42;18.00;99.90
18240;DHT22;9244;50.828;4.718;2023-08-08T08:30:08;18.00;99.90
18240;DHT22;9244;50.828;4.718;2023-08-08T08:32:37;17.90;99.90
18240;DHT22;9244;50.828;4.718;2023-08-08T08:35:03;18.00;99.90
18240;DHT22;9244;50.828;4.718;2023-08-08T08:37:32;17.80;99.90
18240;DHT22;9244;50.828;4.718;2023-08-08T08:39:58;17.60;99.90
18240;DHT22;9244;50.828;4.718;2023-08-08T08:42:24;17.50;99.90
18240;DHT22;9244;50.828;4.718;2023-08-08T08:44:51;17.60;99.90
18240;DHT22;9244;50.828;4.718;2023-08-08T08:47:20;17.70;99.90
18240;DHT22;9244;50.828;4.718;2023-08-08T08:49:46;17.90;99.90
18240;DHT22;9244;50.828;4.718;2023-08-08T08:52:12;18.10;99.90
18240;DHT22;9244;50.828;4.718;2023-08-08T08:54:39;18.20;99.90
18240;DHT22;9244;50.828;4.718;2023-08-08T08:57:05;18.10;99.90
18240;DHT22;9244;50.828;4.718;2023-08-08T08:59:31;18.20;99.90
18240;DHT22;9244;50.828;4.718;2023-08-08T09:01:56;18.20;99.90
18240;DHT22;9244;50.828;4.718;2023-08-08T09:04:23;18.30;99.90
18240;DHT22;9244;50.828;4.718;2023-08-08T09:06:50;18.30;99.90
18240;DHT22;9244;50.828;4.718;2023-08-08T09:09:17;18.50;99.90
18240;DHT22;9244;50.828;4.718;2023-08-08T09:11:48;18.70;99.90
18240;DHT22;9244;50.828;4.718;2023-08-08T09:14:25;18.80;99.90
18240;DHT22;9244;50.828;4.718;2023-08-08T09:16:52;18.70;99.90
18240;DHT22;9244;50.828;4.718;2023-08-08T09:19:22;18.90;99.90
18240;DHT22;9244;50.828;4.718;2023-08-08T09:21:50;19.00;99.90
18240;DHT22;9244;50.828;4.718;2023-08-08T09:24:16;18.70;99.90
18240;DHT22;9244;50.828;4.718;2023-08-08T09:26:42;19.10;99.90
18240;DHT22;9244;50.828;4.718;2023-08-08T09:29:09;19.10;99.90
18240;DHT22;9244;50.828;4.718;2023-08-08T09:31:35;18.80;99.90
18240;DHT22;9244;50.828;4.718;2023-08-08T09:34:03;19.00;99.90
18240;DHT22;9244;50.828;4.718;2023-08-08T09:36:28;19.10;99.90
18240;DHT22;9244;50.828;4.718;2023-08-08T09:38:55;19.50;99.90
18240;DHT22;9244;50.828;4.718;2023-08-08T09:41:24;20.00;99.90
18240;DHT22;9244;50.828;4.718;2023-08-08T09:43:51;20.00;99.90
18240;DHT22;9244;50.828;4.718;2023-08-08T09:46:19;19.70;99.90
18240;DHT22;9244;50.828;4.718;2023-08-08T09:48:44;19.70;99.90
18240;DHT22;9244;50.828;4.718;2023-08-08T09:51:10;19.90;99.90
18240;DHT22;9244;50.828;4.718;2023-08-08T09:53:38;20.10;99.90
18240;DHT22;9244;50.828;4.718;2023-08-08T09:56:04;19.60;99.90
18240;DHT22;9244;50.828;4.718;2023-08-08T09:58:30;19.80;99.90
18240;DHT22;9244;50.828;4.718;2023-08-08T10:00:56;19.60;99.90
18240;DHT22;9244;50.828;4.718;2023-08-08T10:03:22;19.40;99.90
18240;DHT22;9244;50.828;4.718;2023-08-08T10:05:48;19.10;99.90
18240;DHT22;9244;50.828;4.718;2023-08-08T10:08:17;19.20;99.90
18240;DHT22;9244;50.828;4.718;2023-08-08T10:10:48;19.30;99.90
18240;DHT22;9244;50.828;4.718;2023-08-08T10:13:22;19.20;99.90
18240;DHT22;9244;50.828;4.718;2023-08-08T10:15:48;19.10;99.90
18240;DHT22;9244;50.828;4.718;2023-08-08T10:18:14;19.10;99.90
18240;DHT22;9244;50.828;4.718;2023-08-08T10:20:49;18.90;99.90
18240;DHT22;9244;50.828;4.718;2023-08-08T10:23:16;19.00;99.90
18240;DHT22;9244;50.828;4.718;2023-08-08T10:25:52;19.00;99.90
18240;DHT22;9244;50.828;4.718;2023-08-08T10:28:21;18.70;99.90
18240;DHT22;9244;50.828;4.718;2023-08-08T10:30:55;18.60;99.90
18240;DHT22;9244;50.828;4.718;2023-08-08T10:33:26;18.60;99.90
18240;DHT22;9244;50.828;4.718;2023-08-08T10:36:01;18.50;99.90
18240;DHT22;9244;50.828;4.718;2023-08-08T10:41:05;19.10;99.90
18240;DHT22;9244;50.828;4.718;2023-08-08T10:43:33;18.80;99.90
18240;DHT22;9244;50.828;4.718;2023-08-08T10:46:03;18.70;99.90
18240;DHT22;9244;50.828;4.718;2023-08-08T10:48:30;18.40;99.90
18240;DHT22;9244;50.828;4.718;2023-08-08T10:50:58;18.10;99.90
18240;DHT22;9244;50.828;4.718;2023-08-08T10:53:28;18.00;99.90
18240;DHT22;9244;50.828;4.718;2023-08-08T10:55:58;17.90;99.90
18240;DHT22;9244;50.828;4.718;2023-08-08T10:58:35;17.80;99.90
18240;DHT22;9244;50.828;4.718;2023-08-08T11:01:01;17.80;99.90
18240;DHT22;9244;50.828;4.718;2023-08-08T11:03:27;17.70;99.90
18240;DHT22;9244;50.828;4.718;2023-08-08T11:05:55;17.70;99.90
18240;DHT22;9244;50.828;4.718;2023-08-08T11:08:21;17.70;99.90
18240;DHT22;9244;50.828;4.718;2023-08-08T11:10:51;17.70;99.90
18240;DHT22;9244;50.828;4.718;2023-08-08T11:13:17;17.70;99.90
18240;DHT22;9244;50.828;4.718;2023-08-08T11:15:43;17.70;99.90
18240;DHT22;9244;50.828;4.718;2023-08-08T11:18:08;17.60;99.90
18240;DHT22;9244;50.828;4.718;2023-08-08T11:20:35;17.60;99.90
18240;DHT22;9244;50.828;4.718;2023-08-08T11:23:01;17.50;99.90
18240;DHT22;9244;50.828;4.718;2023-08-08T11:25:30;17.50;99.90
18240;DHT22;9244;50.828;4.718;2023-08-08T11:27:57;17.60;99.90
18240;DHT22;9244;50.828;4.718;2023-08-08T11:30:24;17.70;99.90
18240;DHT22;9244;50.828;4.718;2023-08-08T11:32:53;18.00;99.90
18240;DHT22;9244;50.828;4.718;2023-08-08T11:35:22;18.50;99.90
18240;DHT22;9244;50.828;4.718;2023-08-08T11:37:50;18.90;99.90
18240;DHT22;9244;50.828;4.718;2023-08-08T11:40:17;19.10;99.90
18240;DHT22;9244;50.828;4.718;2023-08-08T11:42:43;19.40;99.90
18240;DHT22;9244;50.828;4.718;2023-08-08T11:45:11;19.50;99.90
18240;DHT22;9244;50.828;4.718;2023-08-08T11:47:38;19.50;99.90
18240;DHT22;9244;50.828;4.718;2023-08-08T11:50:05;19.50;99.90
18240;DHT22;9244;50.828;4.718;2023-08-08T11:52:32;19.60;99.90
18240;DHT22;9244;50.828;4.718;2023-08-08T11:54:59;20.30;99.90
18240;DHT22;9244;50.828;4.718;2023-08-08T11:57:27;20.50;99.90
18240;DHT22;9244;50.828;4.718;2023-08-08T11:59:54;20.40;99.90
18240;DHT22;9244;50.828;4.718;2023-08-08T12:02:20;19.70;99.90
18240;DHT22;9244;50.828;4.718;2023-08-08T12:04:46;19.20;99.90
18240;DHT22;9244;50.828;4.718;2023-08-08T12:07:12;19.00;99.90
18240;DHT22;9244;50.828;4.718;2023-08-08T12:09:38;19.00;99.90
18240;DHT22;9244;50.828;4.718;2023-08-08T12:12:04;18.90;99.90
18240;DHT22;9244;50.828;4.718;2023-08-08T12:14:36;18.70;99.90
18240;DHT22;9244;50.828;4.718;2023-08-08T12:17:02;18.60;99.90
18240;DHT22;9244;50.828;4.718;2023-08-08T12:19:28;18.30;99.90
18240;DHT22;9244;50.828;4.718;2023-08-08T12:21:54;18.30;99.90
18240;DHT22;9244;50.828;4.718;2023-08-08T12:24:20;18.10;99.90
18240;DHT22;9244;50.828;4.718;2023-08-08T12:26:46;18.10;99.90
18240;DHT22;9244;50.828;4.718;2023-08-08T12:29:15;18.20;99.90
18240;DHT22;9244;50.828;4.718;2023-08-08T12:31:40;18.50;99.90
18240;DHT22;9244;50.828;4.718;2023-08-08T12:34:06;19.00;99.90
18240;DHT22;9244;50.828;4.718;2023-08-08T12:36:32;19.20;99.90
18240;DHT22;9244;50.828;4.718;2023-08-08T12:38:57;19.80;99.90
18240;DHT22;9244;50.828;4.718;2023-08-08T12:41:23;20.20;99.90
18240;DHT22;9244;50.828;4.718;2023-08-08T12:43:52;19.90;99.90
18240;DHT22;9244;50.828;4.718;2023-08-08T12:46:18;19.50;99.90
18240;DHT22;9244;50.828;4.718;2023-08-08T12:48:43;19.60;99.90
18240;DHT22;9244;50.828;4.718;2023-08-08T12:51:10;19.70;99.90
18240;DHT22;9244;50.828;4.718;2023-08-08T12:53:36;19.90;99.90
18240;DHT22;9244;50.828;4.718;2023-08-08T12:56:02;19.70;99.90
18240;DHT22;9244;50.828;4.718;2023-08-08T12:58:28;19.70;99.90
18240;DHT22;9244;50.828;4.718;2023-08-08T13:00:54;19.70;99.90
18240;DHT22;9244;50.828;4.718;2023-08-08T13:03:19;19.80;99.90
18240;DHT22;9244;50.828;4.718;2023-08-08T13:05:46;20.10;99.90
18240;DHT22;9244;50.828;4.718;2023-08-08T13:08:12;20.70;99.90
18240;DHT22;9244;50.828;4.718;2023-08-08T13:10:39;20.50;99.90
18240;DHT22;9244;50.828;4.718;2023-08-08T13:13:05;20.40;99.90
18240;DHT22;9244;50.828;4.718;2023-08-08T13:15:31;20.70;99.90
18240;DHT22;9244;50.828;4.718;2023-08-08T13:17:57;20.80;99.90
18240;DHT22;9244;50.828;4.718;2023-08-08T13:20:25;20.50;99.90
18240;DHT22;9244;50.828;4.718;2023-08-08T13:22:51;20.20;99.90
18240;DHT22;9244;50.828;4.718;2023-08-08T13:25:17;19.90;99.90
18240;DHT22;9244;50.828;4.718;2023-08-08T13:27:44;19.90;99.90
18240;DHT22;9244;50.828;4.718;2023-08-08T13:30:10;19.90;99.90
18240;DHT22;9244;50.828;4.718;2023-08-08T13:32:36;20.00;99.90
18240;DHT22;9244;50.828;4.718;2023-08-08T13:35:03;19.90;99.90
18240;DHT22;9244;50.828;4.718;2023-08-08T13:37:30;19.60;99.90
18240;DHT22;9244;50.828;4.718;2023-08-08T13:39:55;19.70;99.90
18240;DHT22;9244;50.828;4.718;2023-08-08T13:42:21;19.60;99.90
18240;DHT22;9244;50.828;4.718;2023-08-08T13:44:46;19.60;99.90
18240;DHT22;9244;50.828;4.718;2023-08-08T13:47:12;19.50;99.90
18240;DHT22;9244;50.828;4.718;2023-08-08T13:49:38;19.40;99.90
18240;DHT22;9244;50.828;4.718;2023-08-08T13:52:03;19.60;99.90
18240;DHT22;9244;50.828;4.718;2023-08-08T13:54:29;20.00;99.90
18240;DHT22;9244;50.828;4.718;2023-08-08T13:56:55;20.40;99.90
18240;DHT22;9244;50.828;4.718;2023-08-08T13:59:20;20.50;99.90
18240;DHT22;9244;50.828;4.718;2023-08-08T14:01:46;20.50;99.90
18240;DHT22;9244;50.828;4.718;2023-08-08T14:04:12;20.40;99.90
18240;DHT22;9244;50.828;4.718;2023-08-08T14:06:37;20.40;99.90
18240;DHT22;9244;50.828;4.718;2023-08-08T14:09:03;20.40;99.90
18240;DHT22;9244;50.828;4.718;2023-08-08T14:11:29;20.50;99.90
18240;DHT22;9244;50.828;4.718;2023-08-08T14:13:55;20.90;99.90
18240;DHT22;9244;50.828;4.718;2023-08-08T14:16:20;21.30;99.90
18240;DHT22;9244;50.828;4.718;2023-08-08T14:18:46;21.20;99.90
18240;DHT22;9244;50.828;4.718;2023-08-08T14:21:12;20.90;99.90
18240;DHT22;9244;50.828;4.718;2023-08-08T14:23:37;20.60;99.90
18240;DHT22;9244;50.828;4.718;2023-08-08T14:26:03;20.30;99.90
18240;DHT22;9244;50.828;4.718;2023-08-08T14:28:29;20.10;99.90
18240;DHT22;9244;50.828;4.718;2023-08-08T14:30:54;19.90;99.90
18240;DHT22;9244;50.828;4.718;2023-08-08T14:33:20;19.70;99.90
18240;DHT22;9244;50.828;4.718;2023-08-08T14:35:46;19.80;99.90
18240;DHT22;9244;50.828;4.718;2023-08-08T14:38:11;19.90;99.90
18240;DHT22;9244;50.828;4.718;2023-08-08T14:40:37;19.60;99.90
18240;DHT22;9244;50.828;4.718;2023-08-08T14:43:03;19.50;99.90
18240;DHT22;9244;50.828;4.718;2023-08-08T14:45:28;19.30;99.90
18240;DHT22;9244;50.828;4.718;2023-08-08T14:47:55;19.20;99.90
18240;DHT22;9244;50.828;4.718;2023-08-08T14:50:20;19.10;99.90
18240;DHT22;9244;50.828;4.718;2023-08-08T14:52:46;19.00;99.90
18240;DHT22;9244;50.828;4.718;2023-08-08T14:55:12;19.00;99.90
18240;DHT22;9244;50.828;4.718;2023-08-08T14:57:37;19.00;99.90
18240;DHT22;9244;50.828;4.718;2023-08-08T15:00:03;19.00;99.90
18240;DHT22;9244;50.828;4.718;2023-08-08T15:02:31;19.00;99.90
18240;DHT22;9244;50.828;4.718;2023-08-08T15:04:57;18.90;99.90
18240;DHT22;9244;50.828;4.718;2023-08-08T15:07:23;18.80;99.90
18240;DHT22;9244;50.828;4.718;2023-08-08T15:09:48;18.90;99.90
18240;DHT22;9244;50.828;4.718;2023-08-08T15:12:15;19.00;99.90
18240;DHT22;9244;50.828;4.718;2023-08-08T15:14:43;19.10;99.90
18240;DHT22;9244;50.828;4.718;2023-08-08T15:17:09;19.10;99.90
18240;DHT22;9244;50.828;4.718;2023-08-08T15:19:35;19.00;99.90
18240;DHT22;9244;50.828;4.718;2023-08-08T15:22:03;19.00;99.90
18240;DHT22;9244;50.828;4.718;2023-08-08T15:24:29;19.20;99.90
18240;DHT22;9244;50.828;4.718;2023-08-08T15:26:54;19.20;99.90
18240;DHT22;9244;50.828;4.718;2023-08-08T15:29:20;19.10;99.90
18240;DHT22;9244;50.828;4.718;2023-08-08T15:31:46;19.20;99.90
18240;DHT22;9244;50.828;4.718;2023-08-08T15:34:11;19.20;99.90
18240;DHT22;9244;50.828;4.718;2023-08-08T15:36:37;19.00;99.90
18240;DHT22;9244;50.828;4.718;2023-08-08T15:39:03;18.80;99.90
18240;DHT22;9244;50.828;4.718;2023-08-08T15:41:28;18.60;99.90